createdAt,value
2019-01-06T00:01:21.624Z,4.90
2019-01-06T00:04:07.953Z,13.17
2019-01-06T00:06:56.119Z,15.20
2019-01-06T00:09:26.195Z,17.27
2019-01-06T00:12:02.950Z,8.40
2019-01-06T00:14:44.868Z,16.67
2019-01-06T00:17:23.819Z,8.20
2019-01-06T00:20:08.696Z,10.03
2019-01-06T00:22:54.967Z,12.40
2019-01-06T00:25:25.050Z,6.33
2019-01-06T00:27:55.144Z,14.63
2019-01-06T00:30:25.204Z,11.53
2019-01-06T00:32:55.283Z,10.67
2019-01-06T00:35:25.339Z,9.83
2019-01-06T00:38:03.897Z,8.60
2019-01-06T00:40:33.964Z,10.77
2019-01-06T00:43:12.880Z,9.70
2019-01-06T00:45:54.669Z,9.70
2019-01-06T00:48:40.479Z,11.77
2019-01-06T00:51:26.799Z,16.43
2019-01-06T00:54:05.924Z,11.57
2019-01-06T00:56:51.896Z,6.47
2019-01-06T00:59:24.932Z,9.30
2019-01-06T01:01:55.038Z,7.97
2019-01-06T01:04:43.021Z,10.60
2019-01-06T01:07:28.264Z,12.77
2019-01-06T01:10:00.831Z,14.23
2019-01-06T01:12:33.380Z,10.33
2019-01-06T01:15:06.352Z,9.70
2019-01-06T01:17:52.660Z,7.17
2019-01-06T01:20:22.722Z,19.87
2019-01-06T01:23:10.946Z,18.43
2019-01-06T01:25:41.033Z,14.27
2019-01-06T01:28:16.619Z,4.80
2019-01-06T01:30:46.712Z,10.03
2019-01-06T01:33:19.186Z,9.10
2019-01-06T01:36:05.529Z,11.93
2019-01-06T01:38:38.538Z,6.90
2019-01-06T01:41:08.628Z,7.17
2019-01-06T01:43:38.727Z,8.60
2019-01-06T01:46:14.480Z,15.83
2019-01-06T01:48:56.055Z,16.57
2019-01-06T01:51:28.834Z,6.90
2019-01-06T01:54:14.914Z,14.83
2019-01-06T01:56:47.795Z,6.30
2019-01-06T01:59:30.047Z,6.60
2019-01-06T02:02:08.610Z,10.13
2019-01-06T02:04:50.595Z,15.60
2019-01-06T02:07:30.959Z,7.30
2019-01-06T02:10:06.759Z,10.13
2019-01-06T02:12:42.347Z,9.27
2019-01-06T02:15:15.072Z,14.80
2019-01-06T02:17:47.655Z,17.30
2019-01-06T02:20:20.247Z,11.93
2019-01-06T02:22:56.048Z,8.27
2019-01-06T02:25:42.558Z,9.33
2019-01-06T02:28:15.035Z,5.60
2019-01-06T02:30:50.889Z,11.17
2019-01-06T02:33:38.851Z,14.20
2019-01-06T02:36:11.340Z,7.67
2019-01-06T02:38:47.072Z,8.70
2019-01-06T02:41:33.308Z,9.30
2019-01-06T02:44:06.058Z,8.83
2019-01-06T02:46:41.655Z,10.60
2019-01-06T02:49:23.786Z,9.80
2019-01-06T02:51:53.872Z,15.13
2019-01-06T02:54:29.862Z,7.23
2019-01-06T02:57:02.611Z,4.80
2019-01-06T02:59:44.102Z,4.37
2019-01-06T03:02:16.907Z,10.37
2019-01-06T03:05:03.287Z,18.03
2019-01-06T03:07:45.500Z,7.60
2019-01-06T03:10:24.332Z,9.40
2019-01-06T03:12:54.404Z,4.67
2019-01-06T03:15:24.479Z,7.10
2019-01-06T03:17:54.539Z,6.03
2019-01-06T03:20:42.435Z,6.40
2019-01-06T03:23:15.184Z,9.07
2019-01-06T03:25:51.195Z,7.63
2019-01-06T03:28:26.994Z,10.87
2019-01-06T03:30:59.553Z,10.13
2019-01-06T03:33:45.600Z,12.90
2019-01-06T03:36:18.406Z,1.50
2019-01-06T03:38:57.307Z,4.90
2019-01-06T03:41:27.373Z,5.00
2019-01-06T03:44:00.181Z,12.30
2019-01-06T03:46:48.088Z,4.70
2019-01-06T03:49:29.895Z,6.67
2019-01-06T03:52:02.641Z,5.37
2019-01-06T03:54:48.779Z,5.77
2019-01-06T03:57:35.204Z,8.20
2019-01-06T04:00:12.154Z,15.63
2019-01-06T04:02:44.925Z,11.33
2019-01-06T04:05:23.971Z,2.77
2019-01-06T04:07:59.827Z,9.67
2019-01-06T04:10:46.212Z,4.73
2019-01-06T04:13:28.267Z,5.73
2019-01-06T04:15:58.350Z,1.60
2019-01-06T04:18:34.135Z,3.83
2019-01-06T04:21:04.385Z,12.93
2019-01-06T04:23:34.597Z,2.43
2019-01-06T04:26:22.516Z,8.37
2019-01-06T04:28:58.570Z,6.43
2019-01-06T04:31:37.621Z,11.97
2019-01-06T04:34:13.658Z,6.70
2019-01-06T04:36:59.791Z,14.57
2019-01-06T04:39:35.706Z,10.30
2019-01-06T04:42:05.792Z,6.93
2019-01-06T04:44:50.688Z,12.97
2019-01-06T04:47:23.388Z,11.40
2019-01-06T04:49:59.897Z,15.33
2019-01-06T04:52:42.731Z,15.13
2019-01-06T04:55:18.631Z,13.57
2019-01-06T04:57:51.650Z,9.20
2019-01-06T05:00:37.752Z,15.80
2019-01-06T05:03:24.048Z,20.27
2019-01-06T05:06:10.099Z,16.73
2019-01-06T05:08:56.344Z,10.33
2019-01-06T05:11:26.421Z,5.00
2019-01-06T05:14:11.336Z,4.80
2019-01-06T05:16:57.695Z,10.00
2019-01-06T05:19:39.835Z,11.87
2019-01-06T05:22:18.981Z,8.10
2019-01-06T05:25:07.007Z,13.43
2019-01-06T05:27:48.820Z,6.03
2019-01-06T05:30:27.551Z,8.40
2019-01-06T05:33:13.630Z,8.00
2019-01-06T05:35:43.725Z,10.50
2019-01-06T05:38:19.512Z,7.77
2019-01-06T05:41:04.388Z,30.53
2019-01-06T05:43:50.434Z,11.80
2019-01-06T05:46:36.522Z,4.43
2019-01-06T05:49:22.611Z,11.50
2019-01-06T05:51:58.554Z,11.07
2019-01-06T05:54:44.959Z,11.90
2019-01-06T05:57:20.999Z,6.73
2019-01-06T06:00:02.863Z,7.70
2019-01-06T06:02:39.155Z,12.60
2019-01-06T06:05:09.279Z,5.00
2019-01-06T06:07:51.089Z,9.73
2019-01-06T06:10:27.262Z,12.30
2019-01-06T06:13:00.032Z,15.17
2019-01-06T06:15:30.097Z,5.77
2019-01-06T06:18:16.064Z,12.43
2019-01-06T06:20:52.227Z,10.33
2019-01-06T06:23:28.091Z,9.50
2019-01-06T06:25:58.177Z,12.70
2019-01-06T06:28:44.549Z,18.53
2019-01-06T06:31:17.340Z,6.80
2019-01-06T06:33:53.232Z,10.33
2019-01-06T06:36:35.425Z,13.53
2019-01-06T06:39:15.689Z,9.57
2019-01-06T06:42:01.826Z,22.07
2019-01-06T06:44:46.925Z,4.43
2019-01-06T06:47:22.984Z,15.10
2019-01-06T06:49:58.743Z,7.10
2019-01-06T06:52:44.932Z,9.73
2019-01-06T06:55:26.444Z,5.90
2019-01-06T06:58:15.258Z,14.10
2019-01-06T07:00:48.540Z,7.83
2019-01-06T07:03:42.147Z,6.30
2019-01-06T07:06:28.259Z,7.07
2019-01-06T07:09:14.729Z,7.27
2019-01-06T07:11:50.856Z,4.53
2019-01-06T07:14:29.996Z,17.07
2019-01-06T07:17:52.507Z,9.70
2019-01-06T07:20:43.776Z,16.10
2019-01-06T07:23:19.707Z,7.10
2019-01-06T07:26:07.436Z,14.17
2019-01-06T07:28:53.394Z,16.23
2019-01-06T07:31:29.406Z,7.67
2019-01-06T07:34:02.203Z,7.47
2019-01-06T07:36:38.078Z,12.23
2019-01-06T07:39:14.084Z,10.17
2019-01-06T07:41:49.973Z,10.23
2019-01-06T07:44:22.995Z,6.30
2019-01-06T07:47:09.287Z,10.50
2019-01-06T07:49:45.355Z,13.00
2019-01-06T07:52:15.416Z,15.33
2019-01-06T07:54:45.563Z,8.80
2019-01-06T07:57:15.611Z,8.30
2019-01-06T07:59:48.467Z,9.30
2019-01-06T08:02:31.230Z,10.03
2019-01-06T08:05:13.220Z,14.33
2019-01-06T08:08:01.200Z,16.57
2019-01-06T08:10:49.259Z,8.37
2019-01-06T08:13:21.974Z,13.47
2019-01-06T08:16:00.731Z,15.57
2019-01-06T08:18:49.048Z,12.50
2019-01-06T08:21:22.077Z,14.40
2019-01-06T08:24:01.160Z,18.53
2019-01-06T08:26:49.122Z,8.50
2019-01-06T08:29:36.768Z,12.03
2019-01-06T08:32:09.287Z,8.63
2019-01-06T08:34:51.192Z,9.90
2019-01-06T08:37:21.284Z,17.23
2019-01-06T08:39:51.346Z,10.67
2019-01-06T08:42:29.950Z,8.53
2019-01-06T08:45:16.179Z,11.13
2019-01-06T08:47:46.232Z,10.87
2019-01-06T08:50:25.012Z,11.63
2019-01-06T08:53:00.803Z,13.20
2019-01-06T08:55:46.636Z,16.90
2019-01-06T08:58:16.836Z,5.87
2019-01-06T09:00:46.951Z,13.43
2019-01-06T09:03:26.119Z,9.93
2019-01-06T09:05:56.195Z,7.07
2019-01-06T09:08:29.236Z,4.53
2019-01-06T09:11:15.274Z,13.67
2019-01-06T09:14:00.261Z,17.13
2019-01-06T09:16:33.127Z,10.53
2019-01-06T09:19:15.039Z,5.07
2019-01-06T09:22:01.099Z,10.00
2019-01-06T09:24:37.137Z,5.57
2019-01-06T09:27:24.884Z,11.13
2019-01-06T09:30:03.923Z,11.83
2019-01-06T09:32:36.964Z,8.23
2019-01-06T09:35:23.019Z,12.17
2019-01-06T09:38:04.992Z,4.93
2019-01-06T09:40:51.283Z,8.80
2019-01-06T09:43:37.097Z,8.83
2019-01-06T09:46:16.108Z,7.43
2019-01-06T09:48:46.200Z,11.00
2019-01-06T09:51:22.064Z,6.37
2019-01-06T09:54:00.943Z,7.20
2019-01-06T09:56:33.926Z,4.30
2019-01-06T09:59:12.794Z,2.63
2019-01-06T10:01:42.842Z,6.10
2019-01-06T10:04:21.748Z,11.77
2019-01-06T10:07:03.546Z,10.50
2019-01-06T10:09:42.155Z,5.03
2019-01-06T10:12:28.489Z,15.60
2019-01-06T10:15:07.312Z,12.03
2019-01-06T10:17:53.403Z,7.50
2019-01-06T10:20:23.563Z,4.50
2019-01-06T10:22:56.111Z,9.03
2019-01-06T10:25:31.882Z,13.30
2019-01-06T10:28:01.937Z,5.87
2019-01-06T10:30:31.995Z,16.03
2019-01-06T10:33:11.146Z,4.30
2019-01-06T10:35:43.910Z,5.33
2019-01-06T10:38:16.686Z,2.10
2019-01-06T10:41:02.593Z,7.53
2019-01-06T10:43:47.906Z,5.63
2019-01-06T10:46:32.822Z,4.47
2019-01-06T10:49:02.882Z,4.83
2019-01-06T10:51:33.011Z,3.20
2019-01-06T10:54:18.230Z,10.40
2019-01-06T10:56:50.955Z,4.43
2019-01-06T10:59:37.003Z,7.83
2019-01-06T11:02:07.097Z,13.20
2019-01-06T11:04:37.155Z,17.33
2019-01-06T11:07:07.298Z,9.00
2019-01-06T11:09:52.155Z,11.10
2019-01-06T11:12:38.127Z,8.37
2019-01-06T11:15:08.275Z,4.70
2019-01-06T11:17:54.360Z,5.73
2019-01-06T11:20:40.693Z,9.97
2019-01-06T11:23:19.333Z,16.13
2019-01-06T11:26:04.496Z,9.43
2019-01-06T11:28:34.555Z,9.23
2019-01-06T11:31:20.619Z,5.67
2019-01-06T11:34:08.787Z,10.83
2019-01-06T11:36:54.704Z,9.80
2019-01-06T11:39:30.423Z,7.93
2019-01-06T11:42:16.522Z,7.83
2019-01-06T11:44:58.345Z,7.00
2019-01-06T11:47:28.436Z,3.13
2019-01-06T11:49:58.491Z,5.03
2019-01-06T11:52:43.134Z,7.27
2019-01-06T11:55:15.839Z,3.97
2019-01-06T11:58:01.804Z,3.90
2019-01-06T12:00:40.963Z,5.40
2019-01-06T12:03:11.050Z,16.23
2019-01-06T12:05:43.842Z,14.67
2019-01-06T12:08:19.666Z,5.10
2019-01-06T12:11:05.819Z,12.10
2019-01-06T12:13:44.751Z,4.80
2019-01-06T12:16:23.646Z,5.70
2019-01-06T12:18:53.695Z,8.83
2019-01-06T12:21:26.428Z,7.23
2019-01-06T12:23:56.523Z,14.20
2019-01-06T12:26:29.586Z,13.60
2019-01-06T12:29:11.497Z,6.60
2019-01-06T12:31:57.488Z,8.70
2019-01-06T12:34:45.426Z,8.10
2019-01-06T12:37:15.546Z,4.80
2019-01-06T12:39:54.094Z,6.63
2019-01-06T12:42:35.904Z,15.00
2019-01-06T12:45:15.202Z,4.20
2019-01-06T12:47:45.255Z,8.63
2019-01-06T12:50:27.385Z,9.97
2019-01-06T12:53:03.301Z,9.70
2019-01-06T12:55:33.395Z,16.93
2019-01-06T12:58:19.223Z,3.03
2019-01-06T13:00:49.294Z,8.53
2019-01-06T13:03:22.171Z,6.33
2019-01-06T13:06:04.054Z,3.70
2019-01-06T13:08:36.647Z,14.03
2019-01-06T13:11:09.458Z,4.77
2019-01-06T13:13:51.347Z,8.67
2019-01-06T13:16:23.866Z,11.40
2019-01-06T13:18:54.021Z,6.10
2019-01-06T13:21:26.824Z,6.60
2019-01-06T13:24:11.460Z,7.70
2019-01-06T13:26:44.477Z,4.50
2019-01-06T13:29:17.116Z,11.93
2019-01-06T13:31:47.228Z,14.93
2019-01-06T13:34:17.592Z,8.37
2019-01-06T13:37:03.697Z,34.77
2019-01-06T13:39:33.804Z,12.60
2019-01-06T13:42:12.932Z,4.87
2019-01-06T13:44:59.350Z,7.90
2019-01-06T13:47:45.390Z,4.37
2019-01-06T13:50:27.576Z,10.70
2019-01-06T13:53:03.566Z,12.23
2019-01-06T13:55:36.329Z,34.53
2019-01-06T13:58:06.387Z,7.50
2019-01-06T14:00:42.234Z,8.93
2019-01-06T14:03:12.318Z,9.53
2019-01-06T14:05:47.948Z,11.63
2019-01-06T14:08:33.737Z,8.00
2019-01-06T14:11:12.669Z,11.80
2019-01-06T14:13:48.494Z,8.20
2019-01-06T14:16:27.653Z,4.13
2019-01-06T14:19:03.694Z,5.50
2019-01-06T14:21:33.774Z,6.63
2019-01-06T14:24:09.932Z,6.57
2019-01-06T14:26:46.096Z,7.80
2019-01-06T14:29:32.393Z,8.50
2019-01-06T14:32:05.434Z,10.83
2019-01-06T14:34:35.495Z,6.23
2019-01-06T14:37:08.535Z,4.67
2019-01-06T14:39:56.685Z,10.50
2019-01-06T14:42:32.444Z,11.63
2019-01-06T14:45:20.135Z,6.03
2019-01-06T14:47:53.151Z,7.83
2019-01-06T14:50:39.583Z,4.93
2019-01-06T14:53:09.630Z,8.03
2019-01-06T14:55:51.229Z,4.80
2019-01-06T14:58:30.359Z,8.80
2019-01-06T15:01:00.407Z,6.80
2019-01-06T15:03:33.192Z,13.20
2019-01-06T15:06:19.339Z,10.57
2019-01-06T15:08:52.394Z,12.27
2019-01-06T15:11:38.202Z,16.10
2019-01-06T15:14:20.243Z,10.23
2019-01-06T15:16:56.269Z,10.30
2019-01-06T15:19:26.327Z,19.33
2019-01-06T15:21:56.416Z,8.27
2019-01-06T15:24:38.059Z,7.77
2019-01-06T15:27:08.683Z,7.60
2019-01-06T15:29:50.519Z,12.20
2019-01-06T15:32:36.720Z,8.23
2019-01-06T15:35:09.593Z,18.10
2019-01-06T15:37:48.385Z,7.80
2019-01-06T15:40:30.362Z,13.37
2019-01-06T15:43:00.448Z,10.17
2019-01-06T15:45:46.359Z,14.33
2019-01-06T15:48:32.424Z,8.50
2019-01-06T15:51:02.518Z,8.30
2019-01-06T15:53:40.979Z,11.13
2019-01-06T15:56:20.129Z,8.53
2019-01-06T15:59:06.159Z,15.63
2019-01-06T16:01:45.146Z,11.70
2019-01-06T16:04:24.020Z,10.87
2019-01-06T16:07:00.129Z,13.97
2019-01-06T16:09:46.502Z,6.70
2019-01-06T16:12:16.592Z,7.10
2019-01-06T16:14:55.836Z,16.40
2019-01-06T16:17:40.804Z,16.07
2019-01-06T16:20:10.855Z,6.67
2019-01-06T16:22:53.008Z,16.47
2019-01-06T16:25:25.772Z,7.43
2019-01-06T16:28:01.776Z,8.53
2019-01-06T16:30:37.335Z,8.50
2019-01-06T16:33:07.418Z,13.73
2019-01-06T16:35:37.503Z,6.63
2019-01-06T16:38:19.593Z,12.87
2019-01-06T16:41:01.459Z,13.97
2019-01-06T16:43:31.512Z,10.03
2019-01-06T16:46:10.407Z,14.83
2019-01-06T16:48:56.723Z,13.40
2019-01-06T16:51:35.372Z,8.00
2019-01-06T16:54:05.444Z,15.70
2019-01-06T16:56:41.223Z,8.50
2019-01-06T16:59:11.304Z,21.07
2019-01-06T17:01:41.364Z,17.57
2019-01-06T17:04:11.444Z,10.97
2019-01-06T17:06:44.486Z,8.67
2019-01-06T17:09:30.303Z,10.77
2019-01-06T17:12:00.385Z,7.33
2019-01-06T17:14:30.436Z,13.50
2019-01-06T17:17:00.526Z,12.97
2019-01-06T17:19:48.488Z,11.63
2019-01-06T17:22:27.240Z,8.10
2019-01-06T17:25:13.151Z,25.63
2019-01-06T17:27:48.670Z,19.90
2019-01-06T17:30:33.858Z,10.10
2019-01-06T17:33:19.787Z,13.57
2019-01-06T17:35:52.247Z,9.63
2019-01-06T17:38:31.009Z,16.77
2019-01-06T17:41:18.745Z,15.57
2019-01-06T17:44:00.601Z,11.93
2019-01-06T17:46:39.476Z,16.80
2019-01-06T17:49:25.624Z,24.40
2019-01-06T17:52:04.736Z,16.83
2019-01-06T17:54:50.667Z,19.80
2019-01-06T17:57:26.840Z,10.87
2019-01-06T17:59:59.624Z,22.37
2019-01-06T18:02:29.683Z,13.63
2019-01-06T18:05:15.518Z,11.90
2019-01-06T18:07:51.392Z,26.53
2019-01-06T18:10:30.504Z,24.07
2019-01-06T18:13:16.711Z,36.53
2019-01-06T18:15:52.733Z,35.40
2019-01-06T18:18:34.658Z,21.73
2019-01-06T18:21:21.161Z,30.40
2019-01-06T18:24:06.417Z,27.30
2019-01-06T18:26:36.907Z,21.23
2019-01-06T18:29:22.965Z,17.40
2019-01-06T18:32:11.165Z,14.93
2019-01-06T18:34:41.270Z,17.60
2019-01-06T18:37:17.419Z,21.80
2019-01-06T18:39:47.512Z,23.07
2019-01-06T18:42:33.601Z,32.10
2019-01-06T18:45:08.896Z,62.53
2019-01-06T18:47:50.426Z,28.27
2019-01-06T18:50:36.771Z,38.33
2019-01-06T18:53:23.274Z,40.47
2019-01-06T18:56:11.429Z,42.43
2019-01-06T18:58:44.187Z,33.77
2019-01-06T19:01:30.175Z,32.73
2019-01-06T19:04:16.324Z,29.33
2019-01-06T19:07:01.586Z,26.20
2019-01-06T19:09:47.545Z,22.90
2019-01-06T19:12:17.632Z,28.37
2019-01-06T19:14:53.495Z,22.60
2019-01-06T19:17:26.487Z,18.30
2019-01-06T19:20:12.466Z,17.00
2019-01-06T19:22:48.519Z,20.57
2019-01-06T19:25:24.542Z,19.27
2019-01-06T19:28:10.648Z,18.80
2019-01-06T19:30:57.024Z,20.17
2019-01-06T19:33:27.130Z,27.87
2019-01-06T19:36:02.855Z,21.23
2019-01-06T19:38:41.652Z,21.70
2019-01-06T19:41:17.423Z,18.67
2019-01-06T19:43:56.454Z,23.30
2019-01-06T19:46:35.672Z,19.70
2019-01-06T19:49:17.555Z,40.33
2019-01-06T19:51:56.348Z,19.37
2019-01-06T19:54:26.435Z,23.60
2019-01-06T19:57:05.527Z,23.40
2019-01-06T19:59:51.551Z,23.30
2019-01-06T20:02:39.653Z,31.30
2019-01-06T20:05:09.740Z,30.73
2019-01-06T20:07:42.505Z,23.10
2019-01-06T20:10:28.692Z,34.57
2019-01-06T20:13:13.481Z,25.50
2019-01-06T20:15:51.009Z,29.30
2019-01-06T20:18:30.224Z,30.67
2019-01-06T20:21:00.741Z,23.67
2019-01-06T20:23:36.930Z,37.90
2019-01-06T20:26:10.256Z,29.10
2019-01-06T20:28:43.593Z,35.63
2019-01-06T20:31:22.787Z,37.30
2019-01-06T20:33:53.246Z,36.20
2019-01-06T20:36:32.314Z,38.77
2019-01-06T20:39:11.248Z,34.20
2019-01-06T20:41:58.541Z,31.37
2019-01-06T20:44:25.663Z,25.73
2019-01-06T20:47:08.226Z,35.90
2019-01-06T20:50:00.410Z,25.47
2019-01-06T20:52:47.255Z,21.67
2019-01-06T20:55:35.219Z,22.03
2019-01-06T20:58:22.064Z,24.20
2019-01-06T21:01:08.397Z,24.40
2019-01-06T21:03:50.265Z,22.47
2019-01-06T21:06:23.608Z,27.10
2019-01-06T21:08:58.043Z,26.93
2019-01-06T21:11:31.236Z,22.50
2019-01-06T21:14:04.534Z,23.37
2019-01-06T21:16:34.932Z,24.60
2019-01-06T21:19:05.106Z,27.93
2019-01-06T21:21:37.804Z,24.80
2019-01-06T21:24:13.807Z,30.00
2019-01-06T21:27:00.372Z,31.00
2019-01-06T21:29:42.844Z,26.70
2019-01-06T21:32:29.604Z,28.07
2019-01-06T21:35:14.751Z,29.77
2019-01-06T21:37:59.924Z,33.57
2019-01-06T21:40:38.687Z,26.67
2019-01-06T21:43:11.311Z,33.50
2019-01-06T21:45:41.424Z,53.33
2019-01-06T21:48:27.523Z,42.70
2019-01-06T21:51:06.722Z,63.33
2019-01-06T21:53:36.814Z,59.80
2019-01-06T21:56:23.142Z,42.00
2019-01-06T21:58:53.198Z,41.97
2019-01-06T22:01:29.151Z,43.10
2019-01-06T22:04:02.008Z,39.20
2019-01-06T22:06:37.871Z,50.23
2019-01-06T22:09:08.694Z,35.10
2019-01-06T22:11:38.791Z,37.70
2019-01-06T22:14:24.719Z,41.23
2019-01-06T22:17:03.651Z,35.00
2019-01-06T22:19:39.552Z,34.10
2019-01-06T22:22:27.464Z,40.87
2019-01-06T22:25:06.302Z,42.33
2019-01-06T22:27:54.561Z,59.13
2019-01-06T22:30:30.456Z,35.60
2019-01-06T22:33:05.914Z,46.93
2019-01-06T22:35:42.031Z,33.27
2019-01-06T22:38:14.988Z,39.23
2019-01-06T22:40:48.035Z,36.20
2019-01-06T22:43:35.886Z,32.23
2019-01-06T22:46:14.554Z,44.63
2019-01-06T22:48:50.722Z,37.37
2019-01-06T22:51:20.837Z,40.30
2019-01-06T22:54:07.131Z,37.77
2019-01-06T22:56:53.271Z,44.37
2019-01-06T22:59:32.428Z,38.80
2019-01-06T23:02:11.566Z,34.80
2019-01-06T23:04:41.646Z,30.23
2019-01-06T23:07:27.770Z,31.37
2019-01-06T23:10:15.670Z,41.27
2019-01-06T23:12:48.252Z,44.80
2019-01-06T23:15:23.984Z,36.67
2019-01-06T23:18:02.604Z,31.70
2019-01-06T23:20:32.687Z,47.33
2019-01-06T23:23:18.582Z,40.10
2019-01-06T23:25:48.699Z,62.03
2019-01-06T23:28:18.745Z,44.73
2019-01-06T23:31:03.866Z,41.63
2019-01-06T23:33:33.943Z,44.37
2019-01-06T23:36:12.863Z,45.63
2019-01-06T23:38:59.232Z,43.40
2019-01-06T23:41:29.290Z,33.47
2019-01-06T23:44:11.327Z,41.73
2019-01-06T23:46:41.391Z,37.83
2019-01-06T23:49:17.275Z,45.13
2019-01-06T23:52:03.215Z,30.47
2019-01-06T23:54:42.003Z,38.23
2019-01-06T23:57:17.598Z,53.27
2019-01-06T23:59:59.256Z,45.87
